Harrison, Michigan
Current Conditions -  °F | °C
As of 2:53 PM on Friday 31 Oct 2014 (Local Time) from KHTL Reporting Station
Overcast Overcast  
Wind Chill: -7°   Ceiling: 2300
Heat Index:   Visibility: 10mi
Dew Point: -4°   Wind: 25mph
Humidity: 72%   Direction: 360°N
Pressure: 30.11"   Gusts: 37mph
Location:  44.02°N, 84.8°W
Report Text: KHTL 311853Z AUTO 36022G32KT 10SM OVC023 01/M04 A3011 RMK AO2 PK WND 01033/1833 SNB23E42 SLP209 P0000 T00061039
Loading
Personal Weather Stations






























Interactive Weather Map
Tropical Storm Tracking
New forecast layout! Learn more

10-Day Weather Forecast

Advertisements
Track Severe Weather on mobile